sensor_id;sensor_type;location;lat;lon;timestamp;P1;durP1;ratioP1;P2;durP2;ratioP2
72621;SDS011;60665;53.506;9.582;2023-08-21T00:01:55;3.72;;;1.17;;
72621;SDS011;60665;53.506;9.582;2023-08-21T00:04:20;3.00;;;1.02;;
72621;SDS011;60665;53.506;9.582;2023-08-21T00:06:45;3.58;;;1.20;;
72621;SDS011;60665;53.506;9.582;2023-08-21T00:09:11;3.83;;;1.10;;
72621;SDS011;60665;53.506;9.582;2023-08-21T00:11:36;2.90;;;1.10;;
72621;SDS011;60665;53.506;9.582;2023-08-21T00:14:02;4.28;;;1.40;;
72621;SDS011;60665;53.506;9.582;2023-08-21T00:16:27;3.45;;;1.08;;
72621;SDS011;60665;53.506;9.582;2023-08-21T00:18:53;5.90;;;1.20;;
72621;SDS011;60665;53.506;9.582;2023-08-21T00:21:19;4.13;;;1.20;;
72621;SDS011;60665;53.506;9.582;2023-08-21T00:23:45;4.55;;;1.27;;
72621;SDS011;60665;53.506;9.582;2023-08-21T00:26:11;4.97;;;1.40;;
72621;SDS011;60665;53.506;9.582;2023-08-21T00:28:37;3.70;;;1.15;;
72621;SDS011;60665;53.506;9.582;2023-08-21T00:31:03;4.35;;;1.15;;
72621;SDS011;60665;53.506;9.582;2023-08-21T00:33:30;3.20;;;1.17;;
72621;SDS011;60665;53.506;9.582;2023-08-21T00:35:56;5.38;;;1.40;;
72621;SDS011;60665;53.506;9.582;2023-08-21T00:38:21;5.85;;;1.60;;
72621;SDS011;60665;53.506;9.582;2023-08-21T00:40:47;4.57;;;1.20;;
72621;SDS011;60665;53.506;9.582;2023-08-21T00:43:12;3.30;;;1.10;;
72621;SDS011;60665;53.506;9.582;2023-08-21T00:45:38;3.42;;;1.17;;
72621;SDS011;60665;53.506;9.582;2023-08-21T00:48:07;3.05;;;1.10;;
72621;SDS011;60665;53.506;9.582;2023-08-21T00:50:32;4.75;;;1.25;;
72621;SDS011;60665;53.506;9.582;2023-08-21T00:52:58;3.45;;;1.17;;
72621;SDS011;60665;53.506;9.582;2023-08-21T00:55:23;3.15;;;1.10;;
72621;SDS011;60665;53.506;9.582;2023-08-21T00:57:49;5.97;;;1.63;;
72621;SDS011;60665;53.506;9.582;2023-08-21T01:00:14;9.60;;;1.70;;
72621;SDS011;60665;53.506;9.582;2023-08-21T01:02:40;5.30;;;1.30;;
72621;SDS011;60665;53.506;9.582;2023-08-21T01:05:05;3.58;;;1.30;;
72621;SDS011;60665;53.506;9.582;2023-08-21T01:07:32;4.50;;;1.10;;
72621;SDS011;60665;53.506;9.582;2023-08-21T01:10:11;5.90;;;1.00;;
72621;SDS011;60665;53.506;9.582;2023-08-21T01:12:45;4.22;;;1.35;;
72621;SDS011;60665;53.506;9.582;2023-08-21T01:15:13;4.40;;;1.20;;
72621;SDS011;60665;53.506;9.582;2023-08-21T01:17:39;3.28;;;1.30;;
72621;SDS011;60665;53.506;9.582;2023-08-21T01:20:07;4.68;;;1.58;;
72621;SDS011;60665;53.506;9.582;2023-08-21T01:22:36;4.20;;;1.42;;
72621;SDS011;60665;53.506;9.582;2023-08-21T01:25:03;4.20;;;1.45;;
72621;SDS011;60665;53.506;9.582;2023-08-21T01:27:35;3.50;;;1.33;;
72621;SDS011;60665;53.506;9.582;2023-08-21T01:30:01;7.13;;;1.55;;
72621;SDS011;60665;53.506;9.582;2023-08-21T01:35:30;5.30;;;1.25;;
72621;SDS011;60665;53.506;9.582;2023-08-21T01:37:56;5.20;;;1.63;;
72621;SDS011;60665;53.506;9.582;2023-08-21T01:40:22;3.55;;;1.45;;
72621;SDS011;60665;53.506;9.582;2023-08-21T01:42:48;4.82;;;1.80;;
72621;SDS011;60665;53.506;9.582;2023-08-21T01:45:13;5.03;;;1.40;;
72621;SDS011;60665;53.506;9.582;2023-08-21T01:47:38;5.93;;;1.40;;
72621;SDS011;60665;53.506;9.582;2023-08-21T01:50:04;2.95;;;1.20;;
72621;SDS011;60665;53.506;9.582;2023-08-21T01:52:30;5.03;;;1.38;;
72621;SDS011;60665;53.506;9.582;2023-08-21T01:54:55;3.08;;;1.25;;
72621;SDS011;60665;53.506;9.582;2023-08-21T01:57:21;4.72;;;1.20;;
72621;SDS011;60665;53.506;9.582;2023-08-21T01:59:46;4.22;;;1.70;;
72621;SDS011;60665;53.506;9.582;2023-08-21T02:02:11;4.78;;;1.80;;
72621;SDS011;60665;53.506;9.582;2023-08-21T02:04:37;4.55;;;1.50;;
72621;SDS011;60665;53.506;9.582;2023-08-21T02:07:02;4.95;;;1.52;;
72621;SDS011;60665;53.506;9.582;2023-08-21T02:09:28;5.45;;;1.42;;
72621;SDS011;60665;53.506;9.582;2023-08-21T02:11:53;3.35;;;1.23;;
72621;SDS011;60665;53.506;9.582;2023-08-21T02:14:18;5.68;;;1.85;;
72621;SDS011;60665;53.506;9.582;2023-08-21T02:16:44;6.57;;;1.98;;
72621;SDS011;60665;53.506;9.582;2023-08-21T02:19:09;6.28;;;1.73;;
72621;SDS011;60665;53.506;9.582;2023-08-21T02:21:34;4.13;;;1.45;;
72621;SDS011;60665;53.506;9.582;2023-08-21T02:24:01;4.63;;;1.40;;
72621;SDS011;60665;53.506;9.582;2023-08-21T02:26:27;3.72;;;1.50;;
72621;SDS011;60665;53.506;9.582;2023-08-21T02:28:52;2.70;;;1.10;;
72621;SDS011;60665;53.506;9.582;2023-08-21T02:31:18;5.38;;;1.35;;
72621;SDS011;60665;53.506;9.582;2023-08-21T02:33:44;4.05;;;1.70;;
72621;SDS011;60665;53.506;9.582;2023-08-21T02:36:09;7.95;;;1.52;;
72621;SDS011;60665;53.506;9.582;2023-08-21T02:38:35;3.58;;;1.60;;
72621;SDS011;60665;53.506;9.582;2023-08-21T02:41:00;5.13;;;1.52;;
72621;SDS011;60665;53.506;9.582;2023-08-21T02:43:26;5.28;;;1.40;;
72621;SDS011;60665;53.506;9.582;2023-08-21T02:45:51;6.70;;;1.60;;
72621;SDS011;60665;53.506;9.582;2023-08-21T02:48:16;6.18;;;1.98;;
72621;SDS011;60665;53.506;9.582;2023-08-21T02:50:42;5.70;;;1.90;;
72621;SDS011;60665;53.506;9.582;2023-08-21T02:53:08;4.18;;;1.83;;
72621;SDS011;60665;53.506;9.582;2023-08-21T02:55:33;4.47;;;1.95;;
72621;SDS011;60665;53.506;9.582;2023-08-21T02:57:59;5.28;;;2.10;;
72621;SDS011;60665;53.506;9.582;2023-08-21T03:00:24;6.20;;;1.98;;
72621;SDS011;60665;53.506;9.582;2023-08-21T03:02:50;4.65;;;1.67;;
72621;SDS011;60665;53.506;9.582;2023-08-21T03:05:15;3.80;;;1.73;;
72621;SDS011;60665;53.506;9.582;2023-08-21T03:07:41;4.05;;;1.70;;
72621;SDS011;60665;53.506;9.582;2023-08-21T03:10:07;4.97;;;1.45;;
72621;SDS011;60665;53.506;9.582;2023-08-21T03:12:33;7.13;;;2.60;;
72621;SDS011;60665;53.506;9.582;2023-08-21T03:14:58;6.10;;;2.65;;
72621;SDS011;60665;53.506;9.582;2023-08-21T03:17:24;7.13;;;3.15;;
72621;SDS011;60665;53.506;9.582;2023-08-21T03:19:49;5.03;;;2.40;;
72621;SDS011;60665;53.506;9.582;2023-08-21T03:22:15;5.75;;;2.20;;
72621;SDS011;60665;53.506;9.582;2023-08-21T03:24:40;6.15;;;2.38;;
72621;SDS011;60665;53.506;9.582;2023-08-21T03:27:05;6.70;;;2.60;;
72621;SDS011;60665;53.506;9.582;2023-08-21T03:29:31;5.43;;;2.53;;
72621;SDS011;60665;53.506;9.582;2023-08-21T03:31:57;7.53;;;2.10;;
72621;SDS011;60665;53.506;9.582;2023-08-21T03:34:23;8.20;;;2.10;;
72621;SDS011;60665;53.506;9.582;2023-08-21T03:36:48;7.20;;;2.28;;
72621;SDS011;60665;53.506;9.582;2023-08-21T03:39:14;7.03;;;2.55;;
72621;SDS011;60665;53.506;9.582;2023-08-21T03:41:39;6.72;;;2.55;;
72621;SDS011;60665;53.506;9.582;2023-08-21T03:44:04;7.95;;;2.83;;
72621;SDS011;60665;53.506;9.582;2023-08-21T03:46:30;6.80;;;3.30;;
72621;SDS011;60665;53.506;9.582;2023-08-21T03:48:55;7.25;;;3.03;;
72621;SDS011;60665;53.506;9.582;2023-08-21T03:51:21;8.15;;;3.13;;
72621;SDS011;60665;53.506;9.582;2023-08-21T03:53:46;6.53;;;2.90;;
72621;SDS011;60665;53.506;9.582;2023-08-21T03:56:11;6.57;;;2.88;;
72621;SDS011;60665;53.506;9.582;2023-08-21T03:58:37;5.88;;;2.97;;
72621;SDS011;60665;53.506;9.582;2023-08-21T04:01:02;6.82;;;3.42;;
72621;SDS011;60665;53.506;9.582;2023-08-21T04:03:28;7.93;;;3.20;;
72621;SDS011;60665;53.506;9.582;2023-08-21T04:05:53;7.25;;;3.35;;
72621;SDS011;60665;53.506;9.582;2023-08-21T04:08:19;8.95;;;3.50;;
72621;SDS011;60665;53.506;9.582;2023-08-21T04:10:45;7.40;;;3.03;;
72621;SDS011;60665;53.506;9.582;2023-08-21T04:13:10;11.07;;;3.63;;
72621;SDS011;60665;53.506;9.582;2023-08-21T04:15:36;8.18;;;3.20;;
72621;SDS011;60665;53.506;9.582;2023-08-21T04:18:02;7.88;;;3.80;;
72621;SDS011;60665;53.506;9.582;2023-08-21T04:20:28;9.38;;;3.90;;
72621;SDS011;60665;53.506;9.582;2023-08-21T04:22:53;8.48;;;3.60;;
72621;SDS011;60665;53.506;9.582;2023-08-21T04:25:19;7.45;;;3.97;;
72621;SDS011;60665;53.506;9.582;2023-08-21T04:27:44;7.05;;;2.95;;
72621;SDS011;60665;53.506;9.582;2023-08-21T04:30:10;12.93;;;4.50;;
72621;SDS011;60665;53.506;9.582;2023-08-21T04:32:36;9.05;;;3.65;;
72621;SDS011;60665;53.506;9.582;2023-08-21T04:35:01;7.55;;;4.05;;
72621;SDS011;60665;53.506;9.582;2023-08-21T04:37:26;11.35;;;4.15;;
72621;SDS011;60665;53.506;9.582;2023-08-21T04:39:52;5.00;;;2.90;;
72621;SDS011;60665;53.506;9.582;2023-08-21T04:42:18;8.05;;;3.20;;
72621;SDS011;60665;53.506;9.582;2023-08-21T04:44:43;7.97;;;4.07;;
72621;SDS011;60665;53.506;9.582;2023-08-21T04:47:22;6.30;;;3.67;;
72621;SDS011;60665;53.506;9.582;2023-08-21T04:49:48;10.00;;;4.18;;
72621;SDS011;60665;53.506;9.582;2023-08-21T04:52:14;10.43;;;4.13;;
72621;SDS011;60665;53.506;9.582;2023-08-21T04:54:39;9.88;;;4.63;;
72621;SDS011;60665;53.506;9.582;2023-08-21T04:57:05;9.50;;;4.40;;
72621;SDS011;60665;53.506;9.582;2023-08-21T04:59:30;9.75;;;4.88;;
72621;SDS011;60665;53.506;9.582;2023-08-21T05:01:55;9.18;;;4.38;;
72621;SDS011;60665;53.506;9.582;2023-08-21T05:04:21;9.52;;;4.85;;
72621;SDS011;60665;53.506;9.582;2023-08-21T05:06:46;11.10;;;4.55;;
72621;SDS011;60665;53.506;9.582;2023-08-21T05:09:12;9.38;;;4.75;;
72621;SDS011;60665;53.506;9.582;2023-08-21T05:11:37;9.10;;;4.80;;
72621;SDS011;60665;53.506;9.582;2023-08-21T05:14:02;9.95;;;5.00;;
72621;SDS011;60665;53.506;9.582;2023-08-21T05:16:28;8.73;;;4.60;;
72621;SDS011;60665;53.506;9.582;2023-08-21T05:18:53;10.18;;;4.90;;
72621;SDS011;60665;53.506;9.582;2023-08-21T05:21:19;8.38;;;4.57;;
72621;SDS011;60665;53.506;9.582;2023-08-21T05:23:45;14.48;;;5.72;;
72621;SDS011;60665;53.506;9.582;2023-08-21T05:26:10;9.88;;;5.30;;
72621;SDS011;60665;53.506;9.582;2023-08-21T05:28:35;7.28;;;4.43;;
72621;SDS011;60665;53.506;9.582;2023-08-21T05:31:01;8.77;;;5.03;;
72621;SDS011;60665;53.506;9.582;2023-08-21T05:33:26;11.32;;;5.03;;
72621;SDS011;60665;53.506;9.582;2023-08-21T05:35:52;9.40;;;5.65;;
72621;SDS011;60665;53.506;9.582;2023-08-21T05:38:18;14.15;;;5.28;;
72621;SDS011;60665;53.506;9.582;2023-08-21T05:40:44;10.38;;;5.35;;
72621;SDS011;60665;53.506;9.582;2023-08-21T05:43:09;10.55;;;4.97;;
72621;SDS011;60665;53.506;9.582;2023-08-21T05:45:35;9.75;;;4.90;;
72621;SDS011;60665;53.506;9.582;2023-08-21T05:48:00;8.80;;;4.38;;
72621;SDS011;60665;53.506;9.582;2023-08-21T05:50:25;7.20;;;4.07;;
72621;SDS011;60665;53.506;9.582;2023-08-21T05:52:51;9.15;;;5.10;;
72621;SDS011;60665;53.506;9.582;2023-08-21T05:55:17;9.48;;;4.30;;
72621;SDS011;60665;53.506;9.582;2023-08-21T05:57:43;10.50;;;5.40;;
72621;SDS011;60665;53.506;9.582;2023-08-21T06:00:08;11.77;;;4.90;;
72621;SDS011;60665;53.506;9.582;2023-08-21T06:02:34;9.52;;;4.53;;
72621;SDS011;60665;53.506;9.582;2023-08-21T06:04:59;13.90;;;4.75;;
72621;SDS011;60665;53.506;9.582;2023-08-21T06:07:25;10.73;;;4.95;;
72621;SDS011;60665;53.506;9.582;2023-08-21T06:09:50;11.52;;;5.38;;
72621;SDS011;60665;53.506;9.582;2023-08-21T06:12:16;10.10;;;5.63;;
72621;SDS011;60665;53.506;9.582;2023-08-21T06:14:41;10.20;;;4.88;;
72621;SDS011;60665;53.506;9.582;2023-08-21T06:17:07;10.10;;;4.97;;
72621;SDS011;60665;53.506;9.582;2023-08-21T06:19:34;9.95;;;5.00;;
72621;SDS011;60665;53.506;9.582;2023-08-21T06:21:59;10.43;;;4.55;;
72621;SDS011;60665;53.506;9.582;2023-08-21T06:24:25;11.05;;;5.05;;
72621;SDS011;60665;53.506;9.582;2023-08-21T06:26:51;10.30;;;4.75;;
72621;SDS011;60665;53.506;9.582;2023-08-21T06:29:17;14.43;;;5.07;;
72621;SDS011;60665;53.506;9.582;2023-08-21T06:31:45;10.02;;;5.50;;
72621;SDS011;60665;53.506;9.582;2023-08-21T06:34:10;8.73;;;4.05;;
72621;SDS011;60665;53.506;9.582;2023-08-21T06:36:36;10.82;;;4.43;;
72621;SDS011;60665;53.506;9.582;2023-08-21T06:39:01;7.97;;;3.72;;
72621;SDS011;60665;53.506;9.582;2023-08-21T06:41:28;8.27;;;3.83;;
72621;SDS011;60665;53.506;9.582;2023-08-21T06:43:54;8.07;;;3.92;;
72621;SDS011;60665;53.506;9.582;2023-08-21T06:46:19;11.63;;;3.75;;
72621;SDS011;60665;53.506;9.582;2023-08-21T06:48:45;11.57;;;3.38;;
72621;SDS011;60665;53.506;9.582;2023-08-21T06:51:11;13.02;;;3.83;;
72621;SDS011;60665;53.506;9.582;2023-08-21T06:53:36;10.82;;;3.33;;
72621;SDS011;60665;53.506;9.582;2023-08-21T06:56:02;11.73;;;3.10;;
72621;SDS011;60665;53.506;9.582;2023-08-21T06:58:28;11.82;;;3.28;;
72621;SDS011;60665;53.506;9.582;2023-08-21T07:00:54;9.10;;;3.30;;
72621;SDS011;60665;53.506;9.582;2023-08-21T07:03:20;9.70;;;2.47;;
72621;SDS011;60665;53.506;9.582;2023-08-21T07:05:46;11.38;;;2.50;;
72621;SDS011;60665;53.506;9.582;2023-08-21T07:08:18;8.93;;;2.13;;
72621;SDS011;60665;53.506;9.582;2023-08-21T07:10:43;8.65;;;1.40;;
72621;SDS011;60665;53.506;9.582;2023-08-21T07:13:09;6.85;;;1.40;;
72621;SDS011;60665;53.506;9.582;2023-08-21T07:15:34;8.07;;;1.33;;
72621;SDS011;60665;53.506;9.582;2023-08-21T07:18:00;7.90;;;1.40;;
72621;SDS011;60665;53.506;9.582;2023-08-21T07:20:25;5.38;;;1.02;;
72621;SDS011;60665;53.506;9.582;2023-08-21T07:22:50;7.50;;;1.42;;
72621;SDS011;60665;53.506;9.582;2023-08-21T07:25:16;5.07;;;1.40;;
72621;SDS011;60665;53.506;9.582;2023-08-21T07:27:42;4.53;;;1.13;;
72621;SDS011;60665;53.506;9.582;2023-08-21T07:30:07;6.32;;;1.30;;
72621;SDS011;60665;53.506;9.582;2023-08-21T07:32:33;7.50;;;1.27;;
72621;SDS011;60665;53.506;9.582;2023-08-21T07:34:58;7.53;;;1.48;;
72621;SDS011;60665;53.506;9.582;2023-08-21T07:37:24;8.40;;;1.67;;
72621;SDS011;60665;53.506;9.582;2023-08-21T07:39:49;6.90;;;1.30;;
72621;SDS011;60665;53.506;9.582;2023-08-21T07:42:14;7.65;;;1.80;;
72621;SDS011;60665;53.506;9.582;2023-08-21T07:44:40;9.10;;;2.22;;
72621;SDS011;60665;53.506;9.582;2023-08-21T07:47:05;6.20;;;1.50;;
72621;SDS011;60665;53.506;9.582;2023-08-21T07:49:31;7.03;;;1.40;;
72621;SDS011;60665;53.506;9.582;2023-08-21T07:51:57;7.75;;;1.50;;
72621;SDS011;60665;53.506;9.582;2023-08-21T07:54:22;7.25;;;1.35;;
72621;SDS011;60665;53.506;9.582;2023-08-21T07:56:49;6.93;;;1.30;;
72621;SDS011;60665;53.506;9.582;2023-08-21T07:59:14;5.10;;;1.30;;
72621;SDS011;60665;53.506;9.582;2023-08-21T08:01:40;4.25;;;1.33;;
72621;SDS011;60665;53.506;9.582;2023-08-21T08:04:05;6.03;;;1.00;;
72621;SDS011;60665;53.506;9.582;2023-08-21T08:06:31;4.20;;;0.98;;
72621;SDS011;60665;53.506;9.582;2023-08-21T08:08:56;7.60;;;1.52;;
72621;SDS011;60665;53.506;9.582;2023-08-21T08:11:22;6.47;;;1.10;;
72621;SDS011;60665;53.506;9.582;2023-08-21T08:13:48;4.55;;;1.20;;
72621;SDS011;60665;53.506;9.582;2023-08-21T08:16:13;5.55;;;1.15;;
72621;SDS011;60665;53.506;9.582;2023-08-21T08:18:38;6.45;;;1.20;;
72621;SDS011;60665;53.506;9.582;2023-08-21T08:21:04;3.70;;;1.05;;
72621;SDS011;60665;53.506;9.582;2023-08-21T08:23:29;3.70;;;1.15;;
72621;SDS011;60665;53.506;9.582;2023-08-21T08:25:55;5.60;;;0.90;;
72621;SDS011;60665;53.506;9.582;2023-08-21T08:28:20;6.53;;;0.82;;
72621;SDS011;60665;53.506;9.582;2023-08-21T08:30:45;5.65;;;0.68;;
72621;SDS011;60665;53.506;9.582;2023-08-21T08:33:11;4.22;;;0.80;;
72621;SDS011;60665;53.506;9.582;2023-08-21T08:35:36;4.95;;;1.15;;
72621;SDS011;60665;53.506;9.582;2023-08-21T08:38:02;4.88;;;1.10;;
72621;SDS011;60665;53.506;9.582;2023-08-21T08:40:27;3.67;;;0.70;;
72621;SDS011;60665;53.506;9.582;2023-08-21T08:42:53;5.82;;;1.40;;
72621;SDS011;60665;53.506;9.582;2023-08-21T08:45:21;4.07;;;1.10;;
72621;SDS011;60665;53.506;9.582;2023-08-21T08:47:53;3.38;;;0.82;;
72621;SDS011;60665;53.506;9.582;2023-08-21T08:50:18;5.45;;;1.42;;
72621;SDS011;60665;53.506;9.582;2023-08-21T08:52:44;2.72;;;1.10;;
72621;SDS011;60665;53.506;9.582;2023-08-21T08:55:10;6.57;;;1.25;;
72621;SDS011;60665;53.506;9.582;2023-08-21T08:57:36;5.85;;;1.33;;
72621;SDS011;60665;53.506;9.582;2023-08-21T09:00:02;4.40;;;0.80;;
72621;SDS011;60665;53.506;9.582;2023-08-21T09:02:29;3.35;;;0.90;;
72621;SDS011;60665;53.506;9.582;2023-08-21T09:04:54;4.68;;;1.08;;
72621;SDS011;60665;53.506;9.582;2023-08-21T09:07:20;3.03;;;0.70;;
72621;SDS011;60665;53.506;9.582;2023-08-21T09:09:46;4.57;;;0.90;;
72621;SDS011;60665;53.506;9.582;2023-08-21T09:12:15;6.10;;;1.30;;
72621;SDS011;60665;53.506;9.582;2023-08-21T09:14:41;4.82;;;1.38;;
72621;SDS011;60665;53.506;9.582;2023-08-21T09:17:07;4.32;;;1.30;;
72621;SDS011;60665;53.506;9.582;2023-08-21T09:19:33;4.47;;;1.17;;
72621;SDS011;60665;53.506;9.582;2023-08-21T09:21:59;2.58;;;0.73;;
72621;SDS011;60665;53.506;9.582;2023-08-21T09:24:33;4.05;;;0.85;;
72621;SDS011;60665;53.506;9.582;2023-08-21T09:26:58;3.40;;;1.15;;
72621;SDS011;60665;53.506;9.582;2023-08-21T09:29:26;4.38;;;1.38;;
72621;SDS011;60665;53.506;9.582;2023-08-21T09:31:52;2.47;;;0.80;;
72621;SDS011;60665;53.506;9.582;2023-08-21T09:34:21;4.85;;;1.17;;
72621;SDS011;60665;53.506;9.582;2023-08-21T09:36:50;3.00;;;0.88;;
72621;SDS011;60665;53.506;9.582;2023-08-21T09:39:19;4.97;;;0.70;;
72621;SDS011;60665;53.506;9.582;2023-08-21T09:41:54;3.65;;;1.20;;
72621;SDS011;60665;53.506;9.582;2023-08-21T09:44:20;4.30;;;0.85;;
72621;SDS011;60665;53.506;9.582;2023-08-21T09:46:48;3.78;;;1.27;;
72621;SDS011;60665;53.506;9.582;2023-08-21T09:49:14;3.55;;;0.90;;
72621;SDS011;60665;53.506;9.582;2023-08-21T09:51:41;3.45;;;0.90;;
72621;SDS011;60665;53.506;9.582;2023-08-21T09:54:07;3.42;;;0.77;;
72621;SDS011;60665;53.506;9.582;2023-08-21T09:56:33;3.90;;;0.90;;
72621;SDS011;60665;53.506;9.582;2023-08-21T09:58:58;4.85;;;0.80;;
72621;SDS011;60665;53.506;9.582;2023-08-21T10:01:24;2.83;;;0.90;;
72621;SDS011;60665;53.506;9.582;2023-08-21T10:03:49;2.95;;;0.82;;
72621;SDS011;60665;53.506;9.582;2023-08-21T10:08:45;5.60;;;0.90;;
72621;SDS011;60665;53.506;9.582;2023-08-21T10:11:11;3.28;;;0.70;;
72621;SDS011;60665;53.506;9.582;2023-08-21T10:13:37;3.70;;;1.63;;
72621;SDS011;60665;53.506;9.582;2023-08-21T10:16:04;3.17;;;0.80;;
72621;SDS011;60665;53.506;9.582;2023-08-21T10:18:31;3.92;;;0.88;;
72621;SDS011;60665;53.506;9.582;2023-08-21T10:20:56;4.13;;;0.82;;
72621;SDS011;60665;53.506;9.582;2023-08-21T10:23:35;3.80;;;1.35;;
72621;SDS011;60665;53.506;9.582;2023-08-21T10:26:04;4.95;;;1.20;;
72621;SDS011;60665;53.506;9.582;2023-08-21T10:34:06;4.03;;;0.80;;
72621;SDS011;60665;53.506;9.582;2023-08-21T10:39:20;3.10;;;1.17;;
72621;SDS011;60665;53.506;9.582;2023-08-21T10:42:06;3.35;;;0.90;;
72621;SDS011;60665;53.506;9.582;2023-08-21T10:47:13;3.25;;;1.35;;
72621;SDS011;60665;53.506;9.582;2023-08-21T10:49:42;2.92;;;1.60;;
72621;SDS011;60665;53.506;9.582;2023-08-21T10:52:09;3.67;;;1.00;;
72621;SDS011;60665;53.506;9.582;2023-08-21T10:54:47;3.53;;;0.93;;
72621;SDS011;60665;53.506;9.582;2023-08-21T10:57:13;3.58;;;1.58;;
72621;SDS011;60665;53.506;9.582;2023-08-21T10:59:48;4.82;;;1.52;;
72621;SDS011;60665;53.506;9.582;2023-08-21T11:02:18;3.97;;;1.98;;
72621;SDS011;60665;53.506;9.582;2023-08-21T11:04:43;3.38;;;1.10;;
72621;SDS011;60665;53.506;9.582;2023-08-21T11:07:09;3.60;;;1.48;;
72621;SDS011;60665;53.506;9.582;2023-08-21T11:09:36;4.18;;;1.15;;
72621;SDS011;60665;53.506;9.582;2023-08-21T11:12:05;4.15;;;1.30;;
72621;SDS011;60665;53.506;9.582;2023-08-21T11:14:37;4.65;;;1.27;;
72621;SDS011;60665;53.506;9.582;2023-08-21T11:17:03;2.90;;;1.02;;
72621;SDS011;60665;53.506;9.582;2023-08-21T11:19:32;3.13;;;1.15;;
72621;SDS011;60665;53.506;9.582;2023-08-21T11:22:01;4.20;;;1.55;;
72621;SDS011;60665;53.506;9.582;2023-08-21T11:27:02;4.38;;;1.33;;
72621;SDS011;60665;53.506;9.582;2023-08-21T11:29:38;2.50;;;0.93;;
72621;SDS011;60665;53.506;9.582;2023-08-21T11:32:14;3.40;;;1.77;;
72621;SDS011;60665;53.506;9.582;2023-08-21T11:37:16;2.60;;;0.90;;
72621;SDS011;60665;53.506;9.582;2023-08-21T11:39:50;5.18;;;1.33;;
72621;SDS011;60665;53.506;9.582;2023-08-21T11:42:18;4.32;;;1.60;;
72621;SDS011;60665;53.506;9.582;2023-08-21T11:44:48;4.70;;;1.02;;
72621;SDS011;60665;53.506;9.582;2023-08-21T11:47:16;3.70;;;1.25;;
72621;SDS011;60665;53.506;9.582;2023-08-21T11:49:42;4.60;;;1.20;;
72621;SDS011;60665;53.506;9.582;2023-08-21T11:52:10;3.28;;;1.55;;
72621;SDS011;60665;53.506;9.582;2023-08-21T11:54:36;3.53;;;1.02;;
72621;SDS011;60665;53.506;9.582;2023-08-21T11:57:06;5.00;;;1.25;;
72621;SDS011;60665;53.506;9.582;2023-08-21T11:59:32;4.50;;;1.40;;
72621;SDS011;60665;53.506;9.582;2023-08-21T12:01:58;3.13;;;1.00;;
72621;SDS011;60665;53.506;9.582;2023-08-21T12:04:24;4.90;;;1.13;;
72621;SDS011;60665;53.506;9.582;2023-08-21T12:06:49;3.88;;;1.60;;
72621;SDS011;60665;53.506;9.582;2023-08-21T12:09:15;5.38;;;2.10;;
72621;SDS011;60665;53.506;9.582;2023-08-21T12:11:40;3.30;;;0.80;;
72621;SDS011;60665;53.506;9.582;2023-08-21T12:14:06;2.50;;;0.90;;
72621;SDS011;60665;53.506;9.582;2023-08-21T12:16:31;3.63;;;1.65;;
72621;SDS011;60665;53.506;9.582;2023-08-21T12:18:56;5.75;;;1.40;;
72621;SDS011;60665;53.506;9.582;2023-08-21T12:21:25;3.90;;;1.35;;
72621;SDS011;60665;53.506;9.582;2023-08-21T12:23:50;3.00;;;0.90;;
72621;SDS011;60665;53.506;9.582;2023-08-21T12:26:16;3.80;;;1.63;;
72621;SDS011;60665;53.506;9.582;2023-08-21T12:28:48;3.10;;;1.30;;
72621;SDS011;60665;53.506;9.582;2023-08-21T12:31:14;3.58;;;1.10;;
72621;SDS011;60665;53.506;9.582;2023-08-21T12:33:39;3.45;;;1.00;;
72621;SDS011;60665;53.506;9.582;2023-08-21T12:36:05;2.85;;;1.23;;
72621;SDS011;60665;53.506;9.582;2023-08-21T12:38:30;2.80;;;1.38;;
72621;SDS011;60665;53.506;9.582;2023-08-21T12:40:57;3.58;;;1.20;;
72621;SDS011;60665;53.506;9.582;2023-08-21T12:43:23;2.85;;;1.25;;
72621;SDS011;60665;53.506;9.582;2023-08-21T12:45:48;3.80;;;1.40;;
72621;SDS011;60665;53.506;9.582;2023-08-21T12:48:13;3.58;;;1.25;;
72621;SDS011;60665;53.506;9.582;2023-08-21T12:50:39;3.50;;;1.35;;
72621;SDS011;60665;53.506;9.582;2023-08-21T12:53:05;4.13;;;1.85;;
72621;SDS011;60665;53.506;9.582;2023-08-21T12:55:30;3.47;;;1.17;;
72621;SDS011;60665;53.506;9.582;2023-08-21T12:57:56;3.45;;;0.93;;
72621;SDS011;60665;53.506;9.582;2023-08-21T13:00:21;2.95;;;1.10;;
72621;SDS011;60665;53.506;9.582;2023-08-21T13:02:47;2.83;;;0.88;;
72621;SDS011;60665;53.506;9.582;2023-08-21T13:05:12;5.97;;;1.13;;
72621;SDS011;60665;53.506;9.582;2023-08-21T13:07:38;4.55;;;1.50;;
72621;SDS011;60665;53.506;9.582;2023-08-21T13:10:03;6.03;;;1.38;;
72621;SDS011;60665;53.506;9.582;2023-08-21T13:12:29;3.85;;;0.90;;
72621;SDS011;60665;53.506;9.582;2023-08-21T13:14:54;5.88;;;1.23;;
72621;SDS011;60665;53.506;9.582;2023-08-21T13:17:19;2.10;;;0.80;;
72621;SDS011;60665;53.506;9.582;2023-08-21T13:19:45;3.25;;;0.88;;
72621;SDS011;60665;53.506;9.582;2023-08-21T13:22:10;2.58;;;0.82;;
72621;SDS011;60665;53.506;9.582;2023-08-21T13:24:35;3.28;;;1.00;;
72621;SDS011;60665;53.506;9.582;2023-08-21T13:27:01;3.95;;;0.80;;
72621;SDS011;60665;53.506;9.582;2023-08-21T13:29:26;3.72;;;0.90;;
72621;SDS011;60665;53.506;9.582;2023-08-21T13:31:52;2.78;;;0.73;;
72621;SDS011;60665;53.506;9.582;2023-08-21T13:34:17;3.05;;;0.70;;
72621;SDS011;60665;53.506;9.582;2023-08-21T13:36:42;3.00;;;1.33;;
72621;SDS011;60665;53.506;9.582;2023-08-21T13:39:08;2.72;;;0.73;;
72621;SDS011;60665;53.506;9.582;2023-08-21T13:41:35;2.58;;;0.80;;
72621;SDS011;60665;53.506;9.582;2023-08-21T13:44:01;3.75;;;0.73;;
72621;SDS011;60665;53.506;9.582;2023-08-21T13:46:27;3.30;;;0.75;;
72621;SDS011;60665;53.506;9.582;2023-08-21T13:48:52;5.47;;;0.93;;
72621;SDS011;60665;53.506;9.582;2023-08-21T13:51:17;3.90;;;1.00;;
72621;SDS011;60665;53.506;9.582;2023-08-21T13:53:43;2.67;;;1.10;;
72621;SDS011;60665;53.506;9.582;2023-08-21T13:56:08;4.93;;;1.23;;
72621;SDS011;60665;53.506;9.582;2023-08-21T13:58:34;2.45;;;0.95;;
72621;SDS011;60665;53.506;9.582;2023-08-21T14:00:59;2.88;;;0.80;;
72621;SDS011;60665;53.506;9.582;2023-08-21T14:03:24;3.20;;;0.90;;
72621;SDS011;60665;53.506;9.582;2023-08-21T14:05:50;3.28;;;1.02;;
72621;SDS011;60665;53.506;9.582;2023-08-21T14:08:15;3.75;;;0.75;;
72621;SDS011;60665;53.506;9.582;2023-08-21T14:10:42;4.72;;;1.17;;
72621;SDS011;60665;53.506;9.582;2023-08-21T14:13:07;3.83;;;1.30;;
72621;SDS011;60665;53.506;9.582;2023-08-21T14:15:33;3.05;;;0.90;;
72621;SDS011;60665;53.506;9.582;2023-08-21T14:17:59;4.15;;;1.13;;
72621;SDS011;60665;53.506;9.582;2023-08-21T14:20:24;3.42;;;0.80;;
72621;SDS011;60665;53.506;9.582;2023-08-21T14:22:50;3.88;;;1.30;;
72621;SDS011;60665;53.506;9.582;2023-08-21T14:25:16;2.70;;;0.82;;
72621;SDS011;60665;53.506;9.582;2023-08-21T14:27:42;3.05;;;1.00;;
72621;SDS011;60665;53.506;9.582;2023-08-21T14:30:08;3.80;;;1.10;;
72621;SDS011;60665;53.506;9.582;2023-08-21T14:32:33;4.63;;;1.10;;
72621;SDS011;60665;53.506;9.582;2023-08-21T14:34:59;4.65;;;1.42;;
72621;SDS011;60665;53.506;9.582;2023-08-21T14:37:24;4.95;;;1.15;;
72621;SDS011;60665;53.506;9.582;2023-08-21T14:39:49;2.47;;;0.68;;
72621;SDS011;60665;53.506;9.582;2023-08-21T14:42:15;7.00;;;1.30;;
72621;SDS011;60665;53.506;9.582;2023-08-21T14:44:40;3.28;;;0.75;;
72621;SDS011;60665;53.506;9.582;2023-08-21T14:47:06;4.97;;;0.90;;
72621;SDS011;60665;53.506;9.582;2023-08-21T14:49:31;5.38;;;1.40;;
72621;SDS011;60665;53.506;9.582;2023-08-21T14:51:57;4.03;;;0.95;;
72621;SDS011;60665;53.506;9.582;2023-08-21T14:54:23;3.30;;;1.20;;
72621;SDS011;60665;53.506;9.582;2023-08-21T14:56:49;3.28;;;1.20;;
72621;SDS011;60665;53.506;9.582;2023-08-21T14:59:15;4.30;;;0.90;;
72621;SDS011;60665;53.506;9.582;2023-08-21T15:01:40;4.40;;;1.40;;